sensor_id;sensor_type;location;lat;lon;timestamp;temperature;humidity
33837;DHT22;20140;49.356;8.812;2022-12-10T00:00:42;2.20;99.90
33837;DHT22;20140;49.356;8.812;2022-12-10T00:03:07;2.20;99.90
33837;DHT22;20140;49.356;8.812;2022-12-10T00:05:34;2.30;99.90
33837;DHT22;20140;49.356;8.812;2022-12-10T00:07:59;2.30;99.90
33837;DHT22;20140;49.356;8.812;2022-12-10T00:10:25;2.30;99.90
33837;DHT22;20140;49.356;8.812;2022-12-10T00:12:51;2.30;99.90
33837;DHT22;20140;49.356;8.812;2022-12-10T00:15:16;2.20;99.90
33837;DHT22;20140;49.356;8.812;2022-12-10T00:17:42;2.20;99.90
33837;DHT22;20140;49.356;8.812;2022-12-10T00:20:08;2.10;99.90
33837;DHT22;20140;49.356;8.812;2022-12-10T00:22:36;2.10;99.90
33837;DHT22;20140;49.356;8.812;2022-12-10T00:25:01;2.10;99.90
33837;DHT22;20140;49.356;8.812;2022-12-10T00:27:27;2.10;99.90
33837;DHT22;20140;49.356;8.812;2022-12-10T00:29:52;2.10;99.90
33837;DHT22;20140;49.356;8.812;2022-12-10T00:32:18;2.10;99.90
33837;DHT22;20140;49.356;8.812;2022-12-10T00:34:43;2.10;99.90
33837;DHT22;20140;49.356;8.812;2022-12-10T00:37:09;2.20;99.90
33837;DHT22;20140;49.356;8.812;2022-12-10T00:39:34;2.20;99.90
33837;DHT22;20140;49.356;8.812;2022-12-10T00:42:01;2.10;99.90
33837;DHT22;20140;49.356;8.812;2022-12-10T00:44:27;2.10;99.90
33837;DHT22;20140;49.356;8.812;2022-12-10T00:46:52;2.10;99.90
33837;DHT22;20140;49.356;8.812;2022-12-10T00:49:18;2.10;99.90
33837;DHT22;20140;49.356;8.812;2022-12-10T00:51:43;2.10;99.90
33837;DHT22;20140;49.356;8.812;2022-12-10T00:54:09;2.10;99.90
33837;DHT22;20140;49.356;8.812;2022-12-10T00:56:36;2.10;99.90
33837;DHT22;20140;49.356;8.812;2022-12-10T00:59:02;2.10;99.90
33837;DHT22;20140;49.356;8.812;2022-12-10T01:04:10;2.10;99.90
33837;DHT22;20140;49.356;8.812;2022-12-10T01:06:40;2.10;99.90
33837;DHT22;20140;49.356;8.812;2022-12-10T01:09:09;2.10;99.90
33837;DHT22;20140;49.356;8.812;2022-12-10T01:11:37;2.10;99.90
33837;DHT22;20140;49.356;8.812;2022-12-10T01:14:04;2.10;99.90
33837;DHT22;20140;49.356;8.812;2022-12-10T01:16:30;2.10;99.90
33837;DHT22;20140;49.356;8.812;2022-12-10T01:18:56;2.10;99.90
33837;DHT22;20140;49.356;8.812;2022-12-10T01:21:23;2.10;99.90
33837;DHT22;20140;49.356;8.812;2022-12-10T01:23:50;2.10;99.90
33837;DHT22;20140;49.356;8.812;2022-12-10T01:26:21;2.10;99.90
33837;DHT22;20140;49.356;8.812;2022-12-10T01:28:47;2.10;99.90
33837;DHT22;20140;49.356;8.812;2022-12-10T01:31:19;2.10;99.90
33837;DHT22;20140;49.356;8.812;2022-12-10T01:33:45;2.10;99.90
33837;DHT22;20140;49.356;8.812;2022-12-10T01:36:23;2.10;99.90
33837;DHT22;20140;49.356;8.812;2022-12-10T01:38:50;2.10;99.90
33837;DHT22;20140;49.356;8.812;2022-12-10T01:41:19;2.00;99.90
33837;DHT22;20140;49.356;8.812;2022-12-10T01:44:00;2.00;99.90
33837;DHT22;20140;49.356;8.812;2022-12-10T01:46:31;2.10;99.90
33837;DHT22;20140;49.356;8.812;2022-12-10T01:48:59;2.00;99.90
33837;DHT22;20140;49.356;8.812;2022-12-10T01:51:28;2.00;99.90
33837;DHT22;20140;49.356;8.812;2022-12-10T01:53:54;2.00;99.90
33837;DHT22;20140;49.356;8.812;2022-12-10T01:56:21;2.00;99.90
33837;DHT22;20140;49.356;8.812;2022-12-10T01:58:49;2.00;99.90
33837;DHT22;20140;49.356;8.812;2022-12-10T02:04:24;2.00;99.90
33837;DHT22;20140;49.356;8.812;2022-12-10T02:06:59;2.10;99.90
33837;DHT22;20140;49.356;8.812;2022-12-10T02:09:48;2.00;99.90
33837;DHT22;20140;49.356;8.812;2022-12-10T02:12:28;2.10;99.90
33837;DHT22;20140;49.356;8.812;2022-12-10T02:15:24;2.10;99.90
33837;DHT22;20140;49.356;8.812;2022-12-10T02:17:52;2.10;99.90
33837;DHT22;20140;49.356;8.812;2022-12-10T02:20:51;2.00;99.90
33837;DHT22;20140;49.356;8.812;2022-12-10T02:26:11;2.00;99.90
33837;DHT22;20140;49.356;8.812;2022-12-10T02:31:32;2.10;99.90
33837;DHT22;20140;49.356;8.812;2022-12-10T02:34:01;2.00;99.90
33837;DHT22;20140;49.356;8.812;2022-12-10T02:36:32;2.00;99.90
33837;DHT22;20140;49.356;8.812;2022-12-10T02:39:01;2.10;99.90
33837;DHT22;20140;49.356;8.812;2022-12-10T02:41:36;2.00;99.90
33837;DHT22;20140;49.356;8.812;2022-12-10T02:44:05;2.10;99.90
33837;DHT22;20140;49.356;8.812;2022-12-10T02:46:34;2.10;99.90
33837;DHT22;20140;49.356;8.812;2022-12-10T02:49:02;2.10;99.90
33837;DHT22;20140;49.356;8.812;2022-12-10T02:51:29;2.00;99.90
33837;DHT22;20140;49.356;8.812;2022-12-10T02:54:00;2.00;99.90
33837;DHT22;20140;49.356;8.812;2022-12-10T02:56:34;2.00;99.90
33837;DHT22;20140;49.356;8.812;2022-12-10T03:04:28;2.00;99.90
33837;DHT22;20140;49.356;8.812;2022-12-10T03:07:05;2.00;99.90
33837;DHT22;20140;49.356;8.812;2022-12-10T03:09:40;2.00;99.90
33837;DHT22;20140;49.356;8.812;2022-12-10T03:12:17;2.00;99.90
33837;DHT22;20140;49.356;8.812;2022-12-10T03:14:45;2.00;99.90
33837;DHT22;20140;49.356;8.812;2022-12-10T03:17:11;2.00;99.90
33837;DHT22;20140;49.356;8.812;2022-12-10T03:19:47;2.00;99.90
33837;DHT22;20140;49.356;8.812;2022-12-10T03:22:15;2.00;99.90
33837;DHT22;20140;49.356;8.812;2022-12-10T03:24:43;2.00;99.90
33837;DHT22;20140;49.356;8.812;2022-12-10T03:27:10;2.00;99.90
33837;DHT22;20140;49.356;8.812;2022-12-10T03:29:47;1.90;99.90
33837;DHT22;20140;49.356;8.812;2022-12-10T03:32:14;1.90;99.90
33837;DHT22;20140;49.356;8.812;2022-12-10T03:34:42;1.90;99.90
33837;DHT22;20140;49.356;8.812;2022-12-10T03:37:08;1.90;99.90
33837;DHT22;20140;49.356;8.812;2022-12-10T03:39:34;1.90;99.90
33837;DHT22;20140;49.356;8.812;2022-12-10T03:42:00;1.90;99.90
33837;DHT22;20140;49.356;8.812;2022-12-10T03:44:34;1.90;99.90
33837;DHT22;20140;49.356;8.812;2022-12-10T03:47:01;1.90;99.90
33837;DHT22;20140;49.356;8.812;2022-12-10T03:49:27;1.90;99.90
33837;DHT22;20140;49.356;8.812;2022-12-10T03:51:52;1.90;99.90
33837;DHT22;20140;49.356;8.812;2022-12-10T03:54:18;1.90;99.90
33837;DHT22;20140;49.356;8.812;2022-12-10T03:56:44;1.90;99.90
33837;DHT22;20140;49.356;8.812;2022-12-10T03:59:09;1.90;99.90
33837;DHT22;20140;49.356;8.812;2022-12-10T04:01:35;1.90;99.90
33837;DHT22;20140;49.356;8.812;2022-12-10T04:04:00;1.90;99.90
33837;DHT22;20140;49.356;8.812;2022-12-10T04:06:27;2.00;99.90
33837;DHT22;20140;49.356;8.812;2022-12-10T04:08:53;1.90;99.90
33837;DHT22;20140;49.356;8.812;2022-12-10T04:11:18;2.00;99.90
33837;DHT22;20140;49.356;8.812;2022-12-10T04:13:44;2.00;99.90
33837;DHT22;20140;49.356;8.812;2022-12-10T04:16:29;1.90;99.90
33837;DHT22;20140;49.356;8.812;2022-12-10T04:19:09;1.90;99.90
33837;DHT22;20140;49.356;8.812;2022-12-10T04:21:36;1.90;99.90
33837;DHT22;20140;49.356;8.812;2022-12-10T04:24:23;1.90;99.90
33837;DHT22;20140;49.356;8.812;2022-12-10T04:27:13;1.90;99.90
33837;DHT22;20140;49.356;8.812;2022-12-10T04:29:41;1.90;99.90
33837;DHT22;20140;49.356;8.812;2022-12-10T04:32:07;1.80;99.90
33837;DHT22;20140;49.356;8.812;2022-12-10T04:34:33;1.80;99.90
33837;DHT22;20140;49.356;8.812;2022-12-10T04:36:59;1.80;99.90
33837;DHT22;20140;49.356;8.812;2022-12-10T04:39:26;1.80;99.90
33837;DHT22;20140;49.356;8.812;2022-12-10T04:41:51;1.80;99.90
33837;DHT22;20140;49.356;8.812;2022-12-10T04:44:18;1.90;99.90
33837;DHT22;20140;49.356;8.812;2022-12-10T04:46:44;1.90;99.90
33837;DHT22;20140;49.356;8.812;2022-12-10T04:49:10;1.90;99.90
33837;DHT22;20140;49.356;8.812;2022-12-10T04:51:36;1.90;99.90
33837;DHT22;20140;49.356;8.812;2022-12-10T04:54:02;1.90;99.90
33837;DHT22;20140;49.356;8.812;2022-12-10T04:56:27;1.80;99.90
33837;DHT22;20140;49.356;8.812;2022-12-10T04:58:55;1.80;99.90
33837;DHT22;20140;49.356;8.812;2022-12-10T05:01:21;1.80;99.90
33837;DHT22;20140;49.356;8.812;2022-12-10T05:03:46;1.80;99.90
33837;DHT22;20140;49.356;8.812;2022-12-10T05:06:14;1.80;99.90
33837;DHT22;20140;49.356;8.812;2022-12-10T05:08:41;1.80;99.90
33837;DHT22;20140;49.356;8.812;2022-12-10T05:11:12;1.80;99.90
33837;DHT22;20140;49.356;8.812;2022-12-10T05:13:38;1.80;99.90
33837;DHT22;20140;49.356;8.812;2022-12-10T05:16:06;1.80;99.90
33837;DHT22;20140;49.356;8.812;2022-12-10T05:18:33;1.80;99.90
33837;DHT22;20140;49.356;8.812;2022-12-10T05:21:00;1.90;99.90
33837;DHT22;20140;49.356;8.812;2022-12-10T05:23:25;1.90;99.90
33837;DHT22;20140;49.356;8.812;2022-12-10T05:26:01;1.80;99.90
33837;DHT22;20140;49.356;8.812;2022-12-10T05:28:28;1.80;99.90
33837;DHT22;20140;49.356;8.812;2022-12-10T05:30:53;1.80;99.90
33837;DHT22;20140;49.356;8.812;2022-12-10T05:33:19;1.80;99.90
33837;DHT22;20140;49.356;8.812;2022-12-10T05:35:52;1.80;99.90
33837;DHT22;20140;49.356;8.812;2022-12-10T05:38:18;1.90;99.90
33837;DHT22;20140;49.356;8.812;2022-12-10T05:40:44;1.90;99.90
33837;DHT22;20140;49.356;8.812;2022-12-10T05:43:09;1.80;99.90
33837;DHT22;20140;49.356;8.812;2022-12-10T05:45:34;1.80;99.90
33837;DHT22;20140;49.356;8.812;2022-12-10T05:48:00;1.80;99.90
33837;DHT22;20140;49.356;8.812;2022-12-10T05:50:26;1.80;99.90
33837;DHT22;20140;49.356;8.812;2022-12-10T05:52:52;1.80;99.90
33837;DHT22;20140;49.356;8.812;2022-12-10T05:55:18;1.80;99.90
33837;DHT22;20140;49.356;8.812;2022-12-10T05:57:43;1.80;99.90
33837;DHT22;20140;49.356;8.812;2022-12-10T06:00:09;1.80;99.90
33837;DHT22;20140;49.356;8.812;2022-12-10T06:02:35;1.80;99.90
33837;DHT22;20140;49.356;8.812;2022-12-10T06:05:01;1.80;99.90
33837;DHT22;20140;49.356;8.812;2022-12-10T06:07:26;1.80;99.90
33837;DHT22;20140;49.356;8.812;2022-12-10T06:09:52;1.80;99.90
33837;DHT22;20140;49.356;8.812;2022-12-10T06:12:18;1.80;99.90
33837;DHT22;20140;49.356;8.812;2022-12-10T06:14:43;1.70;99.90
33837;DHT22;20140;49.356;8.812;2022-12-10T06:17:09;1.70;99.90
33837;DHT22;20140;49.356;8.812;2022-12-10T06:19:35;1.70;99.90
33837;DHT22;20140;49.356;8.812;2022-12-10T06:22:00;1.70;99.90
33837;DHT22;20140;49.356;8.812;2022-12-10T06:24:26;1.60;99.90
33837;DHT22;20140;49.356;8.812;2022-12-10T06:26:51;1.60;99.90
33837;DHT22;20140;49.356;8.812;2022-12-10T06:29:17;1.60;99.90
33837;DHT22;20140;49.356;8.812;2022-12-10T06:31:43;1.70;99.90
33837;DHT22;20140;49.356;8.812;2022-12-10T06:34:08;1.70;99.90
33837;DHT22;20140;49.356;8.812;2022-12-10T06:36:34;1.70;99.90
33837;DHT22;20140;49.356;8.812;2022-12-10T06:39:00;1.70;99.90
33837;DHT22;20140;49.356;8.812;2022-12-10T06:41:25;1.70;99.90
33837;DHT22;20140;49.356;8.812;2022-12-10T06:43:51;1.70;99.90
33837;DHT22;20140;49.356;8.812;2022-12-10T06:46:19;1.60;99.90
33837;DHT22;20140;49.356;8.812;2022-12-10T06:48:45;1.70;99.90
33837;DHT22;20140;49.356;8.812;2022-12-10T06:51:12;1.70;99.90
33837;DHT22;20140;49.356;8.812;2022-12-10T06:53:38;1.70;99.90
33837;DHT22;20140;49.356;8.812;2022-12-10T06:56:06;1.70;99.90
33837;DHT22;20140;49.356;8.812;2022-12-10T06:58:34;1.70;99.90
33837;DHT22;20140;49.356;8.812;2022-12-10T07:01:09;1.60;99.90
33837;DHT22;20140;49.356;8.812;2022-12-10T07:03:35;1.60;99.90
33837;DHT22;20140;49.356;8.812;2022-12-10T07:06:01;1.70;99.90
33837;DHT22;20140;49.356;8.812;2022-12-10T07:08:27;1.60;99.90
33837;DHT22;20140;49.356;8.812;2022-12-10T07:10:53;1.60;99.90
33837;DHT22;20140;49.356;8.812;2022-12-10T07:13:18;1.60;99.90
33837;DHT22;20140;49.356;8.812;2022-12-10T07:15:44;1.60;99.90
33837;DHT22;20140;49.356;8.812;2022-12-10T07:18:10;1.60;99.90
33837;DHT22;20140;49.356;8.812;2022-12-10T07:20:36;1.50;99.90
33837;DHT22;20140;49.356;8.812;2022-12-10T07:23:01;1.60;99.90
33837;DHT22;20140;49.356;8.812;2022-12-10T07:25:27;1.50;99.90
33837;DHT22;20140;49.356;8.812;2022-12-10T07:27:52;1.50;99.90
33837;DHT22;20140;49.356;8.812;2022-12-10T07:30:18;1.50;99.90
33837;DHT22;20140;49.356;8.812;2022-12-10T07:32:43;1.60;99.90
33837;DHT22;20140;49.356;8.812;2022-12-10T07:35:09;1.50;99.90
33837;DHT22;20140;49.356;8.812;2022-12-10T07:37:34;1.50;99.90
33837;DHT22;20140;49.356;8.812;2022-12-10T07:40:00;1.60;99.90
33837;DHT22;20140;49.356;8.812;2022-12-10T07:42:25;1.50;99.90
33837;DHT22;20140;49.356;8.812;2022-12-10T07:44:51;1.50;99.90
33837;DHT22;20140;49.356;8.812;2022-12-10T07:47:16;1.60;99.90
33837;DHT22;20140;49.356;8.812;2022-12-10T07:49:42;1.60;99.90
33837;DHT22;20140;49.356;8.812;2022-12-10T07:52:08;1.60;99.90
33837;DHT22;20140;49.356;8.812;2022-12-10T07:54:33;1.60;99.90
33837;DHT22;20140;49.356;8.812;2022-12-10T07:56:59;1.60;99.90
33837;DHT22;20140;49.356;8.812;2022-12-10T07:59:25;1.60;99.90
33837;DHT22;20140;49.356;8.812;2022-12-10T08:01:51;1.60;99.90
33837;DHT22;20140;49.356;8.812;2022-12-10T08:04:16;1.60;99.90
33837;DHT22;20140;49.356;8.812;2022-12-10T08:06:42;1.60;99.90
33837;DHT22;20140;49.356;8.812;2022-12-10T08:09:08;1.70;99.90
33837;DHT22;20140;49.356;8.812;2022-12-10T08:11:35;1.70;99.90
33837;DHT22;20140;49.356;8.812;2022-12-10T08:14:00;1.70;99.90
33837;DHT22;20140;49.356;8.812;2022-12-10T08:16:27;1.70;99.90
33837;DHT22;20140;49.356;8.812;2022-12-10T08:18:55;1.70;99.90
33837;DHT22;20140;49.356;8.812;2022-12-10T08:21:23;1.80;99.90
33837;DHT22;20140;49.356;8.812;2022-12-10T08:23:50;1.80;99.90
33837;DHT22;20140;49.356;8.812;2022-12-10T08:26:18;2.00;99.90
33837;DHT22;20140;49.356;8.812;2022-12-10T08:28:45;1.90;99.90
33837;DHT22;20140;49.356;8.812;2022-12-10T08:31:12;1.90;99.90
33837;DHT22;20140;49.356;8.812;2022-12-10T08:33:38;1.90;99.90
33837;DHT22;20140;49.356;8.812;2022-12-10T08:36:06;1.90;99.90
33837;DHT22;20140;49.356;8.812;2022-12-10T08:38:32;1.90;99.90
33837;DHT22;20140;49.356;8.812;2022-12-10T08:40:58;1.90;99.90
33837;DHT22;20140;49.356;8.812;2022-12-10T08:43:24;2.00;99.90
33837;DHT22;20140;49.356;8.812;2022-12-10T08:45:49;2.00;99.90
33837;DHT22;20140;49.356;8.812;2022-12-10T08:48:15;2.00;99.90
33837;DHT22;20140;49.356;8.812;2022-12-10T08:50:40;2.10;99.90
33837;DHT22;20140;49.356;8.812;2022-12-10T08:53:06;2.10;99.90
33837;DHT22;20140;49.356;8.812;2022-12-10T08:55:33;2.10;99.90
33837;DHT22;20140;49.356;8.812;2022-12-10T08:57:59;2.10;99.90
33837;DHT22;20140;49.356;8.812;2022-12-10T09:00:25;2.10;99.90
33837;DHT22;20140;49.356;8.812;2022-12-10T09:02:51;2.10;99.90
33837;DHT22;20140;49.356;8.812;2022-12-10T09:05:17;2.20;99.90
33837;DHT22;20140;49.356;8.812;2022-12-10T09:07:42;2.20;99.90
33837;DHT22;20140;49.356;8.812;2022-12-10T09:10:10;2.30;99.90
33837;DHT22;20140;49.356;8.812;2022-12-10T09:12:36;2.30;99.90
33837;DHT22;20140;49.356;8.812;2022-12-10T09:15:03;2.30;99.90
33837;DHT22;20140;49.356;8.812;2022-12-10T09:17:28;2.40;99.90
33837;DHT22;20140;49.356;8.812;2022-12-10T09:19:54;2.40;99.90
33837;DHT22;20140;49.356;8.812;2022-12-10T09:22:19;2.40;99.90
33837;DHT22;20140;49.356;8.812;2022-12-10T09:24:45;2.40;99.90
33837;DHT22;20140;49.356;8.812;2022-12-10T09:27:10;2.40;99.90
33837;DHT22;20140;49.356;8.812;2022-12-10T09:29:36;2.50;99.90
33837;DHT22;20140;49.356;8.812;2022-12-10T09:32:01;2.60;99.90
33837;DHT22;20140;49.356;8.812;2022-12-10T09:34:27;2.60;99.90
33837;DHT22;20140;49.356;8.812;2022-12-10T09:36:53;2.50;99.90
33837;DHT22;20140;49.356;8.812;2022-12-10T09:39:18;2.60;99.90
33837;DHT22;20140;49.356;8.812;2022-12-10T09:44:57;2.70;99.90
33837;DHT22;20140;49.356;8.812;2022-12-10T09:47:52;2.50;99.90
33837;DHT22;20140;49.356;8.812;2022-12-10T09:50:24;2.50;99.90
33837;DHT22;20140;49.356;8.812;2022-12-10T09:52:51;2.50;99.90
33837;DHT22;20140;49.356;8.812;2022-12-10T09:55:34;2.50;99.90
33837;DHT22;20140;49.356;8.812;2022-12-10T09:58:02;2.40;99.90
33837;DHT22;20140;49.356;8.812;2022-12-10T10:02:56;2.40;99.90
33837;DHT22;20140;49.356;8.812;2022-12-10T10:05:48;2.40;99.90
33837;DHT22;20140;49.356;8.812;2022-12-10T10:08:17;2.40;99.90
33837;DHT22;20140;49.356;8.812;2022-12-10T10:10:44;2.40;99.90
33837;DHT22;20140;49.356;8.812;2022-12-10T10:15:50;2.30;99.90
33837;DHT22;20140;49.356;8.812;2022-12-10T10:18:37;2.30;99.90
33837;DHT22;20140;49.356;8.812;2022-12-10T10:21:21;2.20;99.90
33837;DHT22;20140;49.356;8.812;2022-12-10T10:23:47;2.20;99.90
33837;DHT22;20140;49.356;8.812;2022-12-10T10:26:13;2.20;99.90
33837;DHT22;20140;49.356;8.812;2022-12-10T10:28:40;2.30;99.90
33837;DHT22;20140;49.356;8.812;2022-12-10T10:31:23;2.40;99.90
33837;DHT22;20140;49.356;8.812;2022-12-10T10:33:55;2.40;99.90
33837;DHT22;20140;49.356;8.812;2022-12-10T10:36:27;2.50;99.90
33837;DHT22;20140;49.356;8.812;2022-12-10T10:38:53;2.50;99.90
33837;DHT22;20140;49.356;8.812;2022-12-10T10:41:19;2.50;99.90
33837;DHT22;20140;49.356;8.812;2022-12-10T10:43:45;2.60;99.90
33837;DHT22;20140;49.356;8.812;2022-12-10T10:48:36;2.60;99.90
33837;DHT22;20140;49.356;8.812;2022-12-10T10:51:18;2.60;99.90
33837;DHT22;20140;49.356;8.812;2022-12-10T10:53:53;2.80;99.90
33837;DHT22;20140;49.356;8.812;2022-12-10T10:56:31;2.90;99.90
33837;DHT22;20140;49.356;8.812;2022-12-10T10:59:50;3.10;99.90
33837;DHT22;20140;49.356;8.812;2022-12-10T11:01:54;3.30;99.90
33837;DHT22;20140;49.356;8.812;2022-12-10T11:04:36;3.30;99.90
33837;DHT22;20140;49.356;8.812;2022-12-10T11:07:04;3.10;99.90
33837;DHT22;20140;49.356;8.812;2022-12-10T11:09:33;3.10;99.90
33837;DHT22;20140;49.356;8.812;2022-12-10T11:12:01;3.10;99.90
33837;DHT22;20140;49.356;8.812;2022-12-10T11:14:33;3.10;99.90
33837;DHT22;20140;49.356;8.812;2022-12-10T11:19:41;3.20;99.90
33837;DHT22;20140;49.356;8.812;2022-12-10T11:22:20;3.10;99.90
33837;DHT22;20140;49.356;8.812;2022-12-10T11:24:47;3.20;99.90
33837;DHT22;20140;49.356;8.812;2022-12-10T11:27:38;3.30;99.90
33837;DHT22;20140;49.356;8.812;2022-12-10T11:30:18;3.10;99.90
33837;DHT22;20140;49.356;8.812;2022-12-10T11:33:15;3.20;99.90
33837;DHT22;20140;49.356;8.812;2022-12-10T11:36:17;3.30;99.90
33837;DHT22;20140;49.356;8.812;2022-12-10T11:38:52;3.20;99.90
33837;DHT22;20140;49.356;8.812;2022-12-10T11:41:38;3.20;99.90
33837;DHT22;20140;49.356;8.812;2022-12-10T11:46:52;3.60;99.90
33837;DHT22;20140;49.356;8.812;2022-12-10T11:49:32;3.40;99.90
33837;DHT22;20140;49.356;8.812;2022-12-10T11:55:12;3.10;99.90
33837;DHT22;20140;49.356;8.812;2022-12-10T12:00:22;3.00;99.90
33837;DHT22;20140;49.356;8.812;2022-12-10T12:05:52;2.70;99.90
33837;DHT22;20140;49.356;8.812;2022-12-10T12:11:43;2.70;99.90
33837;DHT22;20140;49.356;8.812;2022-12-10T12:14:22;2.70;99.90
33837;DHT22;20140;49.356;8.812;2022-12-10T12:17:05;2.60;99.90
33837;DHT22;20140;49.356;8.812;2022-12-10T12:19:37;2.60;99.90
33837;DHT22;20140;49.356;8.812;2022-12-10T12:22:16;2.70;99.90
33837;DHT22;20140;49.356;8.812;2022-12-10T12:24:47;2.70;99.90
33837;DHT22;20140;49.356;8.812;2022-12-10T12:30:02;2.80;99.90
33837;DHT22;20140;49.356;8.812;2022-12-10T12:32:49;2.60;99.90
33837;DHT22;20140;49.356;8.812;2022-12-10T12:35:21;2.60;99.90
33837;DHT22;20140;49.356;8.812;2022-12-10T12:38:03;2.70;99.90
33837;DHT22;20140;49.356;8.812;2022-12-10T12:40:41;3.40;99.90
33837;DHT22;20140;49.356;8.812;2022-12-10T12:43:32;3.90;99.90
33837;DHT22;20140;49.356;8.812;2022-12-10T12:45:59;4.60;99.90
33837;DHT22;20140;49.356;8.812;2022-12-10T12:51:06;3.80;99.90
33837;DHT22;20140;49.356;8.812;2022-12-10T12:53:35;3.90;99.90
33837;DHT22;20140;49.356;8.812;2022-12-10T13:01:49;3.60;99.90
33837;DHT22;20140;49.356;8.812;2022-12-10T13:04:16;3.60;99.90
33837;DHT22;20140;49.356;8.812;2022-12-10T13:09:51;3.60;99.90
33837;DHT22;20140;49.356;8.812;2022-12-10T13:12:47;3.90;99.90
33837;DHT22;20140;49.356;8.812;2022-12-10T13:15:45;4.70;99.90
33837;DHT22;20140;49.356;8.812;2022-12-10T13:28:31;3.50;99.90
33837;DHT22;20140;49.356;8.812;2022-12-10T13:33:49;3.50;99.90
33837;DHT22;20140;49.356;8.812;2022-12-10T13:36:28;3.40;99.90
33837;DHT22;20140;49.356;8.812;2022-12-10T13:41:31;4.10;99.90
33837;DHT22;20140;49.356;8.812;2022-12-10T13:49:54;3.70;99.90
33837;DHT22;20140;49.356;8.812;2022-12-10T13:55:25;3.20;99.90
33837;DHT22;20140;49.356;8.812;2022-12-10T13:58:39;3.20;99.90
33837;DHT22;20140;49.356;8.812;2022-12-10T14:01:29;3.40;99.90
33837;DHT22;20140;49.356;8.812;2022-12-10T14:06:42;3.00;99.90
33837;DHT22;20140;49.356;8.812;2022-12-10T14:09:18;2.90;99.90
33837;DHT22;20140;49.356;8.812;2022-12-10T14:11:58;2.90;99.90
33837;DHT22;20140;49.356;8.812;2022-12-10T14:14:37;2.90;99.90
33837;DHT22;20140;49.356;8.812;2022-12-10T14:17:08;2.80;99.90
33837;DHT22;20140;49.356;8.812;2022-12-10T14:19:36;3.00;99.90
33837;DHT22;20140;49.356;8.812;2022-12-10T14:22:12;2.60;99.90
33837;DHT22;20140;49.356;8.812;2022-12-10T14:24:40;2.80;99.90
33837;DHT22;20140;49.356;8.812;2022-12-10T14:29:44;2.70;99.90
33837;DHT22;20140;49.356;8.812;2022-12-10T14:32:18;2.50;99.90
33837;DHT22;20140;49.356;8.812;2022-12-10T14:34:52;2.60;99.90
33837;DHT22;20140;49.356;8.812;2022-12-10T14:37:23;2.60;99.90
33837;DHT22;20140;49.356;8.812;2022-12-10T14:39:50;2.50;99.90
33837;DHT22;20140;49.356;8.812;2022-12-10T14:42:16;2.60;99.90
33837;DHT22;20140;49.356;8.812;2022-12-10T14:44:43;2.50;99.90
33837;DHT22;20140;49.356;8.812;2022-12-10T14:47:18;2.50;99.90
33837;DHT22;20140;49.356;8.812;2022-12-10T14:49:50;2.50;99.90
33837;DHT22;20140;49.356;8.812;2022-12-10T14:52:24;2.50;99.90
33837;DHT22;20140;49.356;8.812;2022-12-10T14:54:51;2.50;99.90
33837;DHT22;20140;49.356;8.812;2022-12-10T14:57:28;2.40;99.90
33837;DHT22;20140;49.356;8.812;2022-12-10T15:00:07;2.30;99.90
33837;DHT22;20140;49.356;8.812;2022-12-10T15:02:41;2.30;99.90
33837;DHT22;20140;49.356;8.812;2022-12-10T15:05:16;2.30;99.90
33837;DHT22;20140;49.356;8.812;2022-12-10T15:07:51;2.30;99.90
33837;DHT22;20140;49.356;8.812;2022-12-10T15:10:23;2.30;99.90
33837;DHT22;20140;49.356;8.812;2022-12-10T15:12:50;2.20;99.90
33837;DHT22;20140;49.356;8.812;2022-12-10T15:15:28;2.10;99.90
33837;DHT22;20140;49.356;8.812;2022-12-10T15:18:08;2.10;99.90
33837;DHT22;20140;49.356;8.812;2022-12-10T15:20:48;2.10;99.90
33837;DHT22;20140;49.356;8.812;2022-12-10T15:26:00;2.00;99.90
33837;DHT22;20140;49.356;8.812;2022-12-10T15:31:22;1.90;99.90
33837;DHT22;20140;49.356;8.812;2022-12-10T15:34:08;1.80;99.90
33837;DHT22;20140;49.356;8.812;2022-12-10T15:36:40;1.70;99.90
33837;DHT22;20140;49.356;8.812;2022-12-10T15:39:23;1.70;99.90
33837;DHT22;20140;49.356;8.812;2022-12-10T15:41:51;1.70;99.90
33837;DHT22;20140;49.356;8.812;2022-12-10T15:49:29;1.70;99.90
33837;DHT22;20140;49.356;8.812;2022-12-10T15:51:56;1.60;99.90
33837;DHT22;20140;49.356;8.812;2022-12-10T15:54:23;1.60;99.90
33837;DHT22;20140;49.356;8.812;2022-12-10T15:56:50;1.60;99.90
33837;DHT22;20140;49.356;8.812;2022-12-10T15:59:15;1.60;99.90
33837;DHT22;20140;49.356;8.812;2022-12-10T16:01:41;1.60;99.90
33837;DHT22;20140;49.356;8.812;2022-12-10T16:04:06;1.50;99.90
33837;DHT22;20140;49.356;8.812;2022-12-10T16:06:32;1.60;99.90
33837;DHT22;20140;49.356;8.812;2022-12-10T16:08:57;1.60;99.90
33837;DHT22;20140;49.356;8.812;2022-12-10T16:11:23;1.60;99.90
33837;DHT22;20140;49.356;8.812;2022-12-10T16:13:52;1.50;99.90
33837;DHT22;20140;49.356;8.812;2022-12-10T16:16:18;1.50;99.90
33837;DHT22;20140;49.356;8.812;2022-12-10T16:18:46;1.50;99.90
33837;DHT22;20140;49.356;8.812;2022-12-10T16:21:12;1.40;99.90
33837;DHT22;20140;49.356;8.812;2022-12-10T16:23:38;1.30;99.90
33837;DHT22;20140;49.356;8.812;2022-12-10T16:26:21;1.10;99.90
33837;DHT22;20140;49.356;8.812;2022-12-10T16:28:48;1.00;99.90
33837;DHT22;20140;49.356;8.812;2022-12-10T16:31:16;0.90;99.90
33837;DHT22;20140;49.356;8.812;2022-12-10T16:33:43;0.90;99.90
33837;DHT22;20140;49.356;8.812;2022-12-10T16:36:11;0.80;99.90
33837;DHT22;20140;49.356;8.812;2022-12-10T16:38:37;0.70;99.90
33837;DHT22;20140;49.356;8.812;2022-12-10T16:41:11;0.60;99.90
33837;DHT22;20140;49.356;8.812;2022-12-10T16:43:39;0.60;99.90
33837;DHT22;20140;49.356;8.812;2022-12-10T16:46:05;0.60;99.90
33837;DHT22;20140;49.356;8.812;2022-12-10T16:48:30;0.60;99.90
33837;DHT22;20140;49.356;8.812;2022-12-10T16:50:57;0.50;99.90
33837;DHT22;20140;49.356;8.812;2022-12-10T16:53:27;0.40;99.90
33837;DHT22;20140;49.356;8.812;2022-12-10T16:55:54;0.30;99.90
33837;DHT22;20140;49.356;8.812;2022-12-10T16:58:21;0.20;99.90
33837;DHT22;20140;49.356;8.812;2022-12-10T17:00:48;0.30;99.90
33837;DHT22;20140;49.356;8.812;2022-12-10T17:03:16;0.20;99.90
33837;DHT22;20140;49.356;8.812;2022-12-10T17:08:15;0.00;99.90
33837;DHT22;20140;49.356;8.812;2022-12-10T17:10:41;0.00;99.90
33837;DHT22;20140;49.356;8.812;2022-12-10T17:13:25;0.00;99.90
33837;DHT22;20140;49.356;8.812;2022-12-10T17:15:54;0.00;99.90
33837;DHT22;20140;49.356;8.812;2022-12-10T17:18:20;0.00;99.90
33837;DHT22;20140;49.356;8.812;2022-12-10T17:20:46;-0.10;99.90
33837;DHT22;20140;49.356;8.812;2022-12-10T17:23:12;-0.10;99.90
33837;DHT22;20140;49.356;8.812;2022-12-10T17:25:39;-0.20;99.90
33837;DHT22;20140;49.356;8.812;2022-12-10T17:28:06;-0.30;99.90
33837;DHT22;20140;49.356;8.812;2022-12-10T17:30:34;-0.40;99.90
33837;DHT22;20140;49.356;8.812;2022-12-10T17:32:59;-0.40;99.90
33837;DHT22;20140;49.356;8.812;2022-12-10T17:35:25;-0.40;99.90
33837;DHT22;20140;49.356;8.812;2022-12-10T17:37:51;-0.50;99.90
33837;DHT22;20140;49.356;8.812;2022-12-10T17:40:20;-0.50;99.90
33837;DHT22;20140;49.356;8.812;2022-12-10T17:42:47;-0.50;99.90